KMMK 241022Z AUTO 00000KT 10SM OVC008 16/14 A2982 RMK AO2 T01560144